logo tempoitalia

Diretta Meteo Springfield Comanche National Grassland, Stati Uniti (USA)domenica 30 agosto ore 23:56

Mappa
Sereno 22 °C Sereno 24 Ore: T.min 17 T.max 37
Ponente Nord Km/h 14.8 Punto di rugiada: 13 °C Umidità: 56% Visibilità: 0 Km
Il sole sorge alle: 06:19 Il sole tramonta alle: 19:22
30 Agosto 2026 23:56 tempo osservato: Sereno Sereno 22 56 1018 vento: Nord N 14.8
30 Agosto 2026 22:56 tempo osservato: Sereno Sereno 22 60 1018 vento: Nord N 18.5
30 Agosto 2026 21:56 tempo osservato: Sereno Sereno 24 47 1017 vento: Nord N/NE 22.2
30 Agosto 2026 20:56 tempo osservato: Sereno Sereno 24 50 1016 vento: Nord N/NE 27.8
30 Agosto 2026 19:56 tempo osservato: Sereno Sereno 27 42 1015 vento: Nord N 22.2
30 Agosto 2026 18:56 tempo osservato: Sereno Sereno 28 39 1015 vento: Nord NE 13
30 Agosto 2026 17:56 tempo osservato: Sereno Sereno 34 26 1015 vento: Nord E/NE 24
30 Agosto 2026 16:56 tempo osservato: Sereno Sereno 36 22 1014 vento: Nord E 24
30 Agosto 2026 15:56 tempo osservato: Sereno Sereno 37 22 1015 vento: Nord E 22.2
30 Agosto 2026 14:56 tempo osservato: Sereno Sereno 36 20 1015 vento: Nord E 18.5
30 Agosto 2026 13:56 tempo osservato: Sereno Sereno 37 18 1016 vento: Nord N 5.5
30 Agosto 2026 12:56 tempo osservato: Sereno Sereno 37 19 1016 vento: Nord N 11.1
30 Agosto 2026 11:56 tempo osservato: Sereno Sereno 34 23 1017 vento: Nord N 5.5
30 Agosto 2026 10:56 tempo osservato: Sereno Sereno 33 26 1017 vento: Nord N 11.1
30 Agosto 2026 09:56 tempo osservato: Sereno Sereno 31 31 1017 vento: Nord N 7.4
30 Agosto 2026 08:56 tempo osservato: Sereno Sereno 27 42 1017 vento: Nord O/NO 13
30 Agosto 2026 07:56 tempo osservato: Sereno Sereno 22 56 1018 vento: Nord O/NO 13
30 Agosto 2026 06:56 tempo osservato: Sereno Sereno 18 67 1017 vento: Nord O/NO 13
30 Agosto 2026 05:56 tempo osservato: Sereno Sereno 17 72 1016 vento: Nord O/NO 13
30 Agosto 2026 04:56 tempo osservato: Sereno Sereno 18 72 1016 vento: Nord NO 14.8
30 Agosto 2026 03:56 tempo osservato: Sereno Sereno 20 64 1017 vento: Nord NO 14.8
30 Agosto 2026 02:56 tempo osservato: Sereno Sereno 21 60 1016 vento: Nord NO 22.2
30 Agosto 2026 02:33 tempo osservato: Sereno Sereno 22 53 1016 vento: Nord NO 22.2
30 Agosto 2026 01:56 tempo osservato: Sereno Sereno 23 49 1016 vento: Nord NO 14.8
30 Agosto 2026 00:56 tempo osservato: Sereno Sereno 26 41 1015 vento: Nord S 25.9